createdAt,value
2019-02-23T00:01:22.948Z,5.60
2019-02-23T00:03:52.763Z,5.50
2019-02-23T00:06:29.743Z,5.40
2019-02-23T00:08:53.811Z,5.40
2019-02-23T00:11:26.596Z,5.40
2019-02-23T00:13:56.127Z,5.30
2019-02-23T00:16:25.668Z,5.30
2019-02-23T00:18:55.208Z,5.30
2019-02-23T00:21:24.745Z,5.30
2019-02-23T00:23:54.596Z,5.30
2019-02-23T00:26:24.232Z,5.20
2019-02-23T00:28:54.057Z,5.20
2019-02-23T00:31:23.858Z,5.20
2019-02-23T00:33:53.672Z,5.10
2019-02-23T00:36:23.202Z,5.10
2019-02-23T00:38:52.737Z,5.10
2019-02-23T00:41:22.268Z,5.10
2019-02-23T00:43:51.804Z,5.00
2019-02-23T00:46:21.320Z,5.00
2019-02-23T00:48:50.859Z,5.00
2019-02-23T00:51:20.440Z,5.00
2019-02-23T00:53:49.970Z,5.00
2019-02-23T00:56:19.521Z,5.00
2019-02-23T00:58:49.040Z,5.00
2019-02-23T01:01:18.896Z,4.90
2019-02-23T01:03:48.737Z,4.80
2019-02-23T01:06:18.265Z,4.90
2019-02-23T01:08:48.054Z,4.90
2019-02-23T01:11:17.662Z,4.90
2019-02-23T01:13:47.201Z,4.90
2019-02-23T01:16:16.824Z,4.90
2019-02-23T01:18:46.431Z,4.90
2019-02-23T01:21:15.976Z,4.90
2019-02-23T01:23:45.624Z,4.90
2019-02-23T01:26:15.156Z,5.00
2019-02-23T01:28:44.680Z,5.00
2019-02-23T01:31:14.357Z,5.10
2019-02-23T01:33:43.871Z,5.20
2019-02-23T01:36:13.408Z,5.20
2019-02-23T01:38:43.032Z,5.30
2019-02-23T01:41:12.730Z,5.30
2019-02-23T01:43:42.556Z,5.30
2019-02-23T01:46:12.452Z,5.30
2019-02-23T01:48:42.057Z,5.30
2019-02-23T01:51:11.614Z,5.30
2019-02-23T01:53:41.160Z,5.30
2019-02-23T01:56:10.774Z,5.30
2019-02-23T01:58:40.292Z,5.30
2019-02-23T02:01:09.998Z,5.30
2019-02-23T02:03:39.517Z,5.20
2019-02-23T02:06:09.132Z,5.20
2019-02-23T02:08:38.676Z,5.30
2019-02-23T02:11:08.737Z,5.30
2019-02-23T02:13:38.358Z,5.30
2019-02-23T02:16:08.440Z,5.30
2019-02-23T02:18:37.980Z,5.30
2019-02-23T02:21:07.766Z,5.40
2019-02-23T02:23:37.305Z,5.40
2019-02-23T02:26:06.857Z,5.30
2019-02-23T02:28:36.414Z,5.30
2019-02-23T02:31:06.600Z,5.40
2019-02-23T02:33:57.982Z,5.40
2019-02-23T02:36:27.520Z,5.40
2019-02-23T02:39:06.141Z,5.50
2019-02-23T02:41:35.703Z,5.50
2019-02-23T02:44:05.337Z,5.40
2019-02-23T02:46:35.184Z,5.40
2019-02-23T02:49:05.582Z,5.30
2019-02-23T02:51:35.156Z,5.20
2019-02-23T02:54:04.849Z,5.10
2019-02-23T02:56:34.453Z,5.00
2019-02-23T02:59:04.014Z,4.90
2019-02-23T03:01:33.545Z,4.80
2019-02-23T03:04:03.149Z,4.80
2019-02-23T03:06:32.708Z,4.70
2019-02-23T03:09:02.335Z,4.60
2019-02-23T03:11:31.856Z,4.60
2019-02-23T03:14:01.593Z,4.50
2019-02-23T03:16:38.558Z,4.50
2019-02-23T03:19:08.105Z,4.50
2019-02-23T03:21:37.654Z,4.40
2019-02-23T03:24:07.261Z,4.40
2019-02-23T03:26:36.884Z,4.30
2019-02-23T03:29:06.413Z,4.30
2019-02-23T03:31:36.009Z,4.20
2019-02-23T03:34:05.606Z,4.20
2019-02-23T03:36:35.132Z,4.10
2019-02-23T03:39:05.865Z,4.10
2019-02-23T03:41:36.049Z,4.00
2019-02-23T03:44:05.665Z,4.00
2019-02-23T03:46:36.547Z,4.00
2019-02-23T03:49:06.092Z,3.90
2019-02-23T03:51:35.631Z,3.90
2019-02-23T03:54:05.595Z,3.90
2019-02-23T03:56:35.222Z,3.80
2019-02-23T03:59:04.821Z,3.80
2019-02-23T04:01:34.347Z,3.80
2019-02-23T04:04:04.044Z,3.80
2019-02-23T04:06:33.821Z,3.80
2019-02-23T04:09:04.248Z,3.70
2019-02-23T04:11:33.768Z,3.70
2019-02-23T04:14:03.580Z,3.70
2019-02-23T04:16:33.096Z,3.70
2019-02-23T04:19:02.977Z,3.70
2019-02-23T04:21:32.517Z,3.60
2019-02-23T04:24:02.127Z,3.60
2019-02-23T04:26:31.646Z,3.50
2019-02-23T04:29:01.205Z,3.50
2019-02-23T04:31:30.754Z,3.50
2019-02-23T04:34:00.274Z,3.40
2019-02-23T04:36:29.818Z,3.30
2019-02-23T04:38:59.355Z,3.30
2019-02-23T04:41:28.957Z,3.30
2019-02-23T04:43:58.505Z,3.30
2019-02-23T04:46:28.031Z,3.20
2019-02-23T04:48:57.561Z,3.20
2019-02-23T04:51:27.412Z,3.20
2019-02-23T04:53:57.200Z,3.20
2019-02-23T04:56:33.836Z,3.20
2019-02-23T04:59:03.366Z,3.20
2019-02-23T05:01:32.902Z,3.20
2019-02-23T05:04:02.456Z,3.10
2019-02-23T05:06:32.296Z,3.10
2019-02-23T05:09:02.171Z,3.00
2019-02-23T05:11:31.705Z,3.00
2019-02-23T05:14:01.296Z,3.00
2019-02-23T05:16:30.837Z,3.00
2019-02-23T05:19:00.373Z,3.00
2019-02-23T05:21:29.907Z,3.00
2019-02-23T05:23:59.732Z,3.00
2019-02-23T05:26:29.721Z,3.00
2019-02-23T05:28:59.245Z,2.90
2019-02-23T05:31:29.653Z,2.90
2019-02-23T05:33:59.178Z,2.90
2019-02-23T05:36:28.710Z,2.90
2019-02-23T05:38:58.248Z,2.90
2019-02-23T05:41:27.788Z,2.80
2019-02-23T05:43:57.361Z,2.80
2019-02-23T05:46:27.128Z,2.80
2019-02-23T05:48:56.672Z,2.80
2019-02-23T05:51:38.131Z,2.80
2019-02-23T05:53:57.745Z,2.80
2019-02-23T05:56:27.556Z,2.70
2019-02-23T05:58:57.168Z,2.70
2019-02-23T06:01:26.697Z,2.60
2019-02-23T06:03:56.224Z,2.60
2019-02-23T06:06:25.777Z,2.60
2019-02-23T06:08:55.340Z,2.50
2019-02-23T06:11:24.864Z,2.50
2019-02-23T06:13:54.693Z,2.50
2019-02-23T06:16:24.408Z,2.50
2019-02-23T06:18:53.944Z,2.50
2019-02-23T06:21:23.725Z,2.50
2019-02-23T06:23:53.276Z,2.40
2019-02-23T06:26:23.137Z,2.40
2019-02-23T06:28:52.939Z,2.30
2019-02-23T06:31:36.871Z,2.30
2019-02-23T06:34:15.639Z,2.30
2019-02-23T06:36:38.254Z,2.10
2019-02-23T06:39:08.181Z,2.10
2019-02-23T06:41:37.729Z,2.10
2019-02-23T06:44:07.260Z,2.10
2019-02-23T06:46:36.800Z,2.10
2019-02-23T06:49:06.359Z,2.10
2019-02-23T06:51:35.896Z,2.10
2019-02-23T06:54:06.117Z,2.00
2019-02-23T06:56:35.667Z,2.10
2019-02-23T06:59:05.201Z,2.20
2019-02-23T07:01:34.813Z,2.20
2019-02-23T07:04:04.344Z,2.30
2019-02-23T07:06:34.145Z,2.30
2019-02-23T07:09:05.194Z,2.40
2019-02-23T07:11:34.896Z,2.40
2019-02-23T07:14:04.713Z,2.50
2019-02-23T07:16:34.249Z,2.50
2019-02-23T07:19:03.813Z,2.60
2019-02-23T07:21:33.620Z,2.60
2019-02-23T07:24:03.236Z,2.60
2019-02-23T07:26:32.788Z,2.70
2019-02-23T07:29:02.344Z,2.70
2019-02-23T07:31:31.875Z,2.70
2019-02-23T07:34:01.396Z,2.70
2019-02-23T07:36:38.529Z,2.80
2019-02-23T07:39:08.075Z,2.80
2019-02-23T07:41:37.948Z,2.90
2019-02-23T07:44:07.859Z,2.90
2019-02-23T07:46:37.668Z,2.90
2019-02-23T07:49:07.197Z,3.00
2019-02-23T07:51:36.984Z,3.00
2019-02-23T07:54:06.528Z,3.00
2019-02-23T07:56:36.068Z,3.10
2019-02-23T07:59:05.616Z,3.10
2019-02-23T08:01:35.413Z,3.20
2019-02-23T08:04:05.009Z,3.20
2019-02-23T08:06:34.565Z,3.30
2019-02-23T08:09:05.353Z,3.40
2019-02-23T08:11:35.177Z,3.40
2019-02-23T08:14:04.800Z,3.50
2019-02-23T08:16:34.345Z,3.60
2019-02-23T08:19:04.189Z,3.70
2019-02-23T08:21:34.000Z,3.70
2019-02-23T08:24:03.920Z,3.80
2019-02-23T08:26:33.725Z,3.80
2019-02-23T08:29:03.246Z,3.90
2019-02-23T08:31:32.788Z,3.90
2019-02-23T08:34:02.322Z,4.00
2019-02-23T08:36:31.909Z,4.00
2019-02-23T08:39:01.440Z,4.00
2019-02-23T08:41:31.261Z,4.00
2019-02-23T08:44:01.216Z,4.10
2019-02-23T08:46:30.768Z,4.20
2019-02-23T08:49:00.368Z,4.20
2019-02-23T08:51:29.909Z,4.30
2019-02-23T08:53:59.713Z,4.30
2019-02-23T08:56:30.932Z,4.30
2019-02-23T08:59:01.005Z,4.40
2019-02-23T09:01:30.981Z,4.40
2019-02-23T09:04:00.755Z,4.50
2019-02-23T09:06:30.293Z,4.50
2019-02-23T09:08:59.820Z,4.50
2019-02-23T09:11:29.353Z,4.60
2019-02-23T09:13:59.213Z,4.60
2019-02-23T09:16:28.760Z,4.70
2019-02-23T09:18:58.628Z,4.70
2019-02-23T09:21:28.464Z,4.80
2019-02-23T09:23:58.353Z,4.80
2019-02-23T09:26:27.896Z,4.90
2019-02-23T09:28:57.444Z,5.00
2019-02-23T09:31:34.384Z,5.00
2019-02-23T09:34:04.568Z,5.10
2019-02-23T09:36:48.716Z,5.10
2019-02-23T09:39:18.529Z,5.20
2019-02-23T09:41:48.441Z,5.30
2019-02-23T09:44:18.249Z,5.30
2019-02-23T09:46:48.265Z,5.40
2019-02-23T09:49:17.862Z,5.50
2019-02-23T09:51:47.388Z,5.60
2019-02-23T09:54:16.921Z,5.70
2019-02-23T09:56:46.467Z,5.70
2019-02-23T09:59:16.299Z,5.80
2019-02-23T10:01:46.205Z,5.80
2019-02-23T10:04:15.760Z,5.90
2019-02-23T10:06:45.620Z,5.90
2019-02-23T10:09:15.227Z,5.90
2019-02-23T10:11:45.143Z,6.00
2019-02-23T10:14:14.753Z,6.00
2019-02-23T10:16:46.301Z,6.00
2019-02-23T10:19:16.132Z,6.10
2019-02-23T10:21:45.656Z,6.20
2019-02-23T10:24:15.184Z,6.30
2019-02-23T10:26:44.757Z,6.40
2019-02-23T10:29:14.312Z,6.40
2019-02-23T10:31:44.147Z,6.50
2019-02-23T10:34:13.691Z,6.50
2019-02-23T10:36:43.228Z,6.60
2019-02-23T10:39:12.781Z,6.70
2019-02-23T10:41:43.328Z,6.80
2019-02-23T10:44:23.125Z,6.90
2019-02-23T10:46:52.656Z,6.90
2019-02-23T10:49:22.193Z,6.90
2019-02-23T10:52:04.804Z,7.00
2019-02-23T10:54:34.347Z,7.00
2019-02-23T10:57:04.316Z,7.10
2019-02-23T10:59:34.185Z,7.10
2019-02-23T11:02:04.205Z,7.20
2019-02-23T11:04:34.780Z,7.30
2019-02-23T11:07:04.847Z,7.30
2019-02-23T11:09:37.297Z,7.40
2019-02-23T11:12:07.281Z,7.40
2019-02-23T11:14:36.824Z,7.50
2019-02-23T11:17:07.368Z,7.60
2019-02-23T11:19:37.173Z,7.70
2019-02-23T11:22:07.117Z,7.70
2019-02-23T11:24:36.779Z,7.80
2019-02-23T11:27:06.813Z,7.90
2019-02-23T11:29:36.594Z,8.10
2019-02-23T11:32:06.216Z,8.10
2019-02-23T11:34:35.756Z,8.20
2019-02-23T11:37:05.852Z,8.30
2019-02-23T11:39:35.684Z,8.30
2019-02-23T11:42:05.674Z,8.40
2019-02-23T11:44:35.284Z,8.50
2019-02-23T11:47:04.949Z,8.60
2019-02-23T11:49:46.040Z,8.60
2019-02-23T11:52:15.905Z,8.70
2019-02-23T11:54:45.580Z,8.80
2019-02-23T11:57:15.117Z,8.80
2019-02-23T11:59:44.684Z,8.90
2019-02-23T12:02:14.519Z,9.00
2019-02-23T12:04:44.314Z,9.00
2019-02-23T12:07:14.128Z,9.00
2019-02-23T12:09:43.659Z,9.10
2019-02-23T12:12:13.433Z,9.20
2019-02-23T12:14:42.972Z,9.20
2019-02-23T12:17:12.514Z,9.30
2019-02-23T12:19:42.093Z,9.40
2019-02-23T12:22:12.651Z,9.40
2019-02-23T12:24:42.372Z,9.40
2019-02-23T12:27:11.945Z,9.40
2019-02-23T12:29:41.473Z,9.40
2019-02-23T12:32:11.336Z,9.40
2019-02-23T12:34:40.864Z,9.40
2019-02-23T12:37:10.629Z,9.50
2019-02-23T12:39:40.757Z,9.50
2019-02-23T12:42:10.360Z,9.60
2019-02-23T12:44:39.896Z,9.60
2019-02-23T12:47:10.181Z,9.60
2019-02-23T12:49:40.033Z,9.60
2019-02-23T12:52:10.632Z,9.70
2019-02-23T12:54:40.200Z,9.70
2019-02-23T12:57:09.724Z,9.70
2019-02-23T12:59:39.341Z,9.80
2019-02-23T13:02:14.952Z,9.90
2019-02-23T13:04:44.497Z,9.90
2019-02-23T13:07:14.314Z,10.00
2019-02-23T13:09:48.258Z,10.00
2019-02-23T13:12:50.661Z,10.00
2019-02-23T13:15:54.865Z,10.00
2019-02-23T13:19:23.700Z,10.00
2019-02-23T13:22:44.658Z,10.00
2019-02-23T13:25:31.968Z,10.00
2019-02-23T13:28:30.441Z,10.00
2019-02-23T13:31:42.926Z,10.00
2019-02-23T13:34:55.586Z,10.00
2019-02-23T13:38:15.839Z,9.90
2019-02-23T13:41:18.972Z,10.00
2019-02-23T13:44:29.989Z,10.00
2019-02-23T13:47:42.749Z,10.00
2019-02-23T13:50:45.913Z,10.00
2019-02-23T13:53:24.481Z,10.00
2019-02-23T13:56:41.545Z,10.00
2019-02-23T13:59:25.148Z,9.90
2019-02-23T14:02:25.139Z,9.90
2019-02-23T14:05:19.524Z,9.90
2019-02-23T14:08:36.853Z,9.90
2019-02-23T14:11:29.079Z,9.90
2019-02-23T14:14:21.589Z,9.90
2019-02-23T14:17:02.493Z,9.90
2019-02-23T14:20:40.846Z,9.90
2019-02-23T14:23:32.869Z,9.90
2019-02-23T14:26:17.252Z,9.70
2019-02-23T14:29:02.126Z,9.70
2019-02-23T14:32:08.638Z,9.80
2019-02-23T14:35:15.473Z,9.80
2019-02-23T14:38:18.064Z,9.80
2019-02-23T14:41:13.025Z,9.80
2019-02-23T14:44:14.477Z,9.80
2019-02-23T14:46:59.144Z,9.80
2019-02-23T14:50:19.420Z,9.70
2019-02-23T14:53:39.421Z,9.60
2019-02-23T14:57:08.681Z,9.50
2019-02-23T14:59:59.248Z,9.50
2019-02-23T15:03:18.397Z,9.40
2019-02-23T15:06:13.635Z,9.40
2019-02-23T15:08:54.260Z,9.30
2019-02-23T15:11:56.157Z,9.30
2019-02-23T15:14:51.794Z,9.20
2019-02-23T15:17:53.847Z,9.20
2019-02-23T15:20:50.165Z,9.10
2019-02-23T15:23:50.965Z,9.10
2019-02-23T15:26:42.984Z,9.00
2019-02-23T15:30:12.073Z,9.00
2019-02-23T15:33:09.967Z,9.00
2019-02-23T15:36:06.986Z,8.90
2019-02-23T15:39:17.441Z,8.90
2019-02-23T15:42:22.757Z,8.80
2019-02-23T15:45:22.207Z,8.70
2019-02-23T15:48:02.437Z,8.60
2019-02-23T15:50:32.020Z,8.50
2019-02-23T15:53:01.652Z,8.50
2019-02-23T15:55:31.368Z,8.40
2019-02-23T15:58:00.897Z,8.40
2019-02-23T16:00:30.765Z,8.30
2019-02-23T16:03:00.336Z,8.30
2019-02-23T16:05:30.232Z,8.30
2019-02-23T16:07:59.812Z,8.20
2019-02-23T16:10:30.024Z,8.20
2019-02-23T16:12:59.876Z,8.10
2019-02-23T16:15:29.596Z,8.10
2019-02-23T16:17:59.509Z,8.10
2019-02-23T16:20:29.113Z,8.00
2019-02-23T16:22:58.936Z,7.90
2019-02-23T16:25:38.046Z,7.90
2019-02-23T16:27:59.807Z,7.80
2019-02-23T16:30:29.727Z,7.70
2019-02-23T16:32:59.536Z,7.70
2019-02-23T16:35:29.076Z,7.60
2019-02-23T16:38:06.784Z,7.60
2019-02-23T16:40:36.312Z,7.50
2019-02-23T16:43:05.837Z,7.50
2019-02-23T16:45:35.484Z,7.30
2019-02-23T16:48:05.089Z,7.30
2019-02-23T16:50:34.982Z,7.20
2019-02-23T16:53:04.549Z,7.20
2019-02-23T16:55:34.080Z,7.10
2019-02-23T16:58:03.633Z,7.00
2019-02-23T17:00:33.253Z,7.00
2019-02-23T17:03:02.793Z,6.90
2019-02-23T17:05:32.404Z,6.90
2019-02-23T17:08:01.967Z,6.80
2019-02-23T17:10:31.840Z,6.80
2019-02-23T17:13:01.732Z,6.80
2019-02-23T17:15:31.541Z,6.70
2019-02-23T17:18:01.077Z,6.70
2019-02-23T17:20:30.765Z,6.60
2019-02-23T17:23:02.141Z,6.50
2019-02-23T17:25:31.921Z,6.50
2019-02-23T17:28:01.480Z,6.40
2019-02-23T17:30:35.393Z,6.30
2019-02-23T17:33:05.244Z,6.20
2019-02-23T17:35:34.777Z,6.20
2019-02-23T17:38:15.679Z,6.10
2019-02-23T17:40:42.977Z,6.00
2019-02-23T17:43:12.536Z,5.90
2019-02-23T17:45:42.108Z,5.90
2019-02-23T17:48:14.979Z,5.80
2019-02-23T17:50:44.874Z,5.80
2019-02-23T17:53:14.785Z,5.70
2019-02-23T17:55:44.376Z,5.70
2019-02-23T17:58:14.198Z,5.60
2019-02-23T18:00:43.749Z,5.60
2019-02-23T18:03:13.276Z,5.60
2019-02-23T18:05:42.904Z,5.60
2019-02-23T18:08:12.481Z,5.60
2019-02-23T18:10:43.153Z,5.60
2019-02-23T18:13:13.001Z,5.50
2019-02-23T18:15:42.648Z,5.50
2019-02-23T18:18:15.189Z,5.50
2019-02-23T18:20:44.752Z,5.40
2019-02-23T18:23:16.694Z,5.40
2019-02-23T18:25:46.357Z,5.30
2019-02-23T18:28:18.942Z,5.30
2019-02-23T18:30:57.652Z,5.30
2019-02-23T18:33:27.190Z,5.30
2019-02-23T18:35:56.717Z,5.30
2019-02-23T18:38:32.220Z,5.20
2019-02-23T18:41:02.080Z,5.20
2019-02-23T18:43:31.864Z,5.10
2019-02-23T18:46:01.456Z,5.10
2019-02-23T18:48:31.052Z,5.10
2019-02-23T18:51:00.912Z,5.10
2019-02-23T18:53:30.484Z,5.10
2019-02-23T18:56:00.258Z,5.10
2019-02-23T18:58:30.240Z,5.10
2019-02-23T19:00:59.802Z,5.10
2019-02-23T19:03:29.388Z,5.10
2019-02-23T19:06:00.617Z,5.00
2019-02-23T19:08:30.516Z,5.00
2019-02-23T19:11:00.123Z,4.90
2019-02-23T19:13:29.895Z,4.90
2019-02-23T19:16:00.057Z,4.90
2019-02-23T19:18:29.860Z,4.80
2019-02-23T19:20:59.400Z,4.80
2019-02-23T19:23:29.008Z,4.80
2019-02-23T19:25:59.027Z,4.80
2019-02-23T19:28:42.914Z,4.80
2019-02-23T19:31:06.632Z,4.80
2019-02-23T19:33:36.164Z,4.70
2019-02-23T19:36:05.844Z,4.70
2019-02-23T19:38:35.412Z,4.70
2019-02-23T19:41:05.217Z,4.70
2019-02-23T19:43:34.760Z,4.70
2019-02-23T19:46:04.479Z,4.60
2019-02-23T19:48:34.044Z,4.60
2019-02-23T19:51:06.621Z,4.60
2019-02-23T19:53:42.884Z,4.60
2019-02-23T19:56:13.100Z,4.50
2019-02-23T19:58:42.752Z,4.40
2019-02-23T20:01:12.628Z,4.40
2019-02-23T20:03:42.760Z,4.40
2019-02-23T20:06:12.965Z,4.40
2019-02-23T20:08:42.879Z,4.30
2019-02-23T20:11:12.409Z,4.30
2019-02-23T20:13:41.976Z,4.30
2019-02-23T20:16:11.897Z,4.30
2019-02-23T20:18:41.709Z,4.30
2019-02-23T20:21:15.392Z,4.30
2019-02-23T20:23:45.324Z,4.20
2019-02-23T20:26:16.482Z,4.10
2019-02-23T20:28:46.538Z,4.00
2019-02-23T20:31:16.704Z,4.00
2019-02-23T20:33:46.480Z,4.00
2019-02-23T20:36:16.020Z,4.00
2019-02-23T20:38:45.777Z,4.00
2019-02-23T20:41:15.310Z,3.90
2019-02-23T20:43:44.917Z,3.90
2019-02-23T20:46:14.493Z,3.90
2019-02-23T20:48:44.764Z,3.90
2019-02-23T20:51:14.295Z,3.80
2019-02-23T20:53:43.884Z,3.80
2019-02-23T20:56:13.496Z,3.70
2019-02-23T20:58:43.412Z,3.70
2019-02-23T21:01:13.025Z,3.60
2019-02-23T21:03:42.914Z,3.60
2019-02-23T21:06:12.767Z,3.50
2019-02-23T21:08:42.745Z,3.50
2019-02-23T21:11:12.349Z,3.50
2019-02-23T21:13:41.868Z,3.50
2019-02-23T21:16:11.446Z,3.50
2019-02-23T21:18:41.012Z,3.40
2019-02-23T21:21:10.605Z,3.30
2019-02-23T21:23:40.208Z,3.30
2019-02-23T21:26:09.740Z,3.30
2019-02-23T21:28:39.278Z,3.30
2019-02-23T21:31:09.197Z,3.20
2019-02-23T21:33:38.720Z,3.20
2019-02-23T21:36:08.257Z,3.20
2019-02-23T21:38:37.836Z,3.20
2019-02-23T21:41:07.721Z,3.10
2019-02-23T21:43:37.257Z,3.10
2019-02-23T21:46:06.829Z,3.10
2019-02-23T21:48:36.959Z,3.00
2019-02-23T21:51:06.487Z,2.90
2019-02-23T21:53:36.368Z,2.90
2019-02-23T21:56:05.994Z,2.80
2019-02-23T21:58:35.556Z,2.80
2019-02-23T22:01:05.210Z,2.80
2019-02-23T22:03:35.109Z,2.70
2019-02-23T22:06:04.913Z,2.70
2019-02-23T22:08:34.693Z,2.70
2019-02-23T22:11:04.288Z,2.70
2019-02-23T22:13:33.837Z,2.70
2019-02-23T22:16:04.395Z,2.70
2019-02-23T22:18:34.160Z,2.80
2019-02-23T22:21:04.431Z,2.70
2019-02-23T22:23:34.312Z,2.70
2019-02-23T22:26:04.121Z,2.70
2019-02-23T22:28:33.674Z,2.70
2019-02-23T22:31:04.216Z,2.60
2019-02-23T22:33:33.783Z,2.50
2019-02-23T22:36:03.298Z,2.50
2019-02-23T22:38:33.114Z,2.50
2019-02-23T22:41:02.648Z,2.60
2019-02-23T22:43:32.489Z,2.60
2019-02-23T22:46:02.301Z,2.60
2019-02-23T22:48:31.853Z,2.60
2019-02-23T22:51:01.738Z,2.50
2019-02-23T22:53:31.629Z,2.40
2019-02-23T22:56:01.540Z,2.40
2019-02-23T22:58:31.076Z,2.50
2019-02-23T23:01:05.157Z,2.50
2019-02-23T23:03:34.714Z,2.50
2019-02-23T23:06:04.316Z,2.40
2019-02-23T23:08:33.952Z,2.40
2019-02-23T23:11:03.480Z,2.40
2019-02-23T23:13:33.709Z,2.40
2019-02-23T23:16:03.508Z,2.40
2019-02-23T23:18:33.105Z,2.40
2019-02-23T23:21:02.651Z,2.40
2019-02-23T23:23:32.538Z,2.40
2019-02-23T23:26:02.084Z,2.40
2019-02-23T23:28:31.628Z,2.40
2019-02-23T23:31:01.224Z,2.30
2019-02-23T23:33:30.769Z,2.30
2019-02-23T23:36:00.389Z,2.30
2019-02-23T23:38:31.300Z,2.20
2019-02-23T23:41:01.057Z,2.20
2019-02-23T23:43:30.585Z,2.20
2019-02-23T23:46:00.780Z,2.20
2019-02-23T23:48:30.747Z,2.30
2019-02-23T23:51:00.600Z,2.20
2019-02-23T23:53:30.613Z,2.20
2019-02-23T23:56:00.178Z,2.20
2019-02-23T23:58:29.993Z,2.20
